Hazelwood, Ohio
Current Conditions -  °F | °C
As of 12:53 PM on Friday 24 Oct 2014 (Local Time) from KLUK Reporting Station
Clear Clear  
Wind Chill: 61°   Ceiling: Unl
Heat Index: 61°   Visibility: 10mi
Dew Point: 45°   Wind: 0mph
Humidity: 56%   Direction: NA
Pressure: 30.12"   Gusts: NA
Location:  39.2437°N, 84.3529°W
Report Text: KLUK 241653Z 00000KT 10SM CLR 16/07 A3012 RMK AO2 SLP198 T01610072
Loading
Personal Weather Stations






























Interactive Weather Map
Tropical Storm Tracking
New forecast layout! Learn more

10-Day Weather Forecast

Advertisements
Track Severe Weather on mobile